createdAt,value
2023-11-30T00:03:38.274Z,5.97
2023-11-30T00:06:06.604Z,5.93
2023-11-30T00:08:34.284Z,8.83
2023-11-30T00:11:01.884Z,5.20
2023-11-30T00:13:29.598Z,6.45
2023-11-30T00:15:58.562Z,8.38
2023-11-30T00:18:26.362Z,11.57
2023-11-30T00:20:54.079Z,7.57
2023-11-30T00:23:21.745Z,8.57
2023-11-30T00:25:49.377Z,8.13
2023-11-30T00:28:17.005Z,7.22
2023-11-30T00:30:44.705Z,9.05
2023-11-30T00:33:13.695Z,5.78
2023-11-30T00:35:41.353Z,6.55
2023-11-30T00:38:08.950Z,5.13
2023-11-30T00:40:38.842Z,8.00
2023-11-30T00:43:06.512Z,7.57
2023-11-30T00:45:34.695Z,7.53
2023-11-30T00:48:02.600Z,5.30
2023-11-30T00:50:31.642Z,7.38
2023-11-30T00:52:59.253Z,7.70
2023-11-30T00:55:26.863Z,8.50
2023-11-30T00:57:54.621Z,7.03
2023-11-30T01:00:23.279Z,8.85
2023-11-30T01:02:50.934Z,4.43
2023-11-30T01:05:18.558Z,7.80
2023-11-30T01:07:47.580Z,5.90
2023-11-30T01:10:15.162Z,6.28
2023-11-30T01:12:42.819Z,6.55
2023-11-30T01:15:11.588Z,6.22
2023-11-30T01:17:39.264Z,7.40
2023-11-30T01:20:08.540Z,7.25
2023-11-30T01:25:05.589Z,6.13
2023-11-30T01:27:33.221Z,7.68
2023-11-30T01:30:01.006Z,5.55
2023-11-30T01:32:28.901Z,7.72
2023-11-30T01:34:56.514Z,6.10
2023-11-30T01:37:24.465Z,5.80
2023-11-30T01:39:52.053Z,6.20
2023-11-30T01:42:21.056Z,7.00
2023-11-30T01:44:48.772Z,7.55
2023-11-30T01:47:17.236Z,6.05
2023-11-30T01:49:45.060Z,5.70
2023-11-30T01:52:13.082Z,4.80
2023-11-30T01:54:41.284Z,5.90
2023-11-30T01:57:08.965Z,4.75
2023-11-30T01:59:38.354Z,7.35
2023-11-30T02:02:06.337Z,7.43
2023-11-30T02:04:35.908Z,5.80
2023-11-30T02:07:05.121Z,5.57
2023-11-30T02:12:01.417Z,5.55
2023-11-30T02:14:29.040Z,5.28
2023-11-30T02:16:57.985Z,6.45
2023-11-30T02:19:25.731Z,4.82
2023-11-30T02:21:54.656Z,6.25
2023-11-30T02:24:22.341Z,6.18
2023-11-30T02:26:50.030Z,4.68
2023-11-30T02:29:18.071Z,4.53
2023-11-30T02:31:45.824Z,4.70
2023-11-30T02:34:13.517Z,4.90
2023-11-30T02:36:41.130Z,8.52
2023-11-30T02:39:10.607Z,4.78
2023-11-30T02:41:38.276Z,7.63
2023-11-30T02:44:06.789Z,4.85
2023-11-30T02:46:34.424Z,6.30
2023-11-30T02:49:02.141Z,4.72
2023-11-30T02:51:30.033Z,5.47
2023-11-30T02:53:58.142Z,4.53
2023-11-30T02:56:27.203Z,3.45
2023-11-30T02:58:54.795Z,4.32
2023-11-30T03:01:22.569Z,4.93
2023-11-30T03:03:50.231Z,4.55
2023-11-30T03:06:17.913Z,4.75
2023-11-30T03:08:47.759Z,3.55
2023-11-30T03:11:16.605Z,3.78
2023-11-30T03:13:45.579Z,3.90
2023-11-30T03:16:13.228Z,4.90
2023-11-30T03:18:41.604Z,5.72
2023-11-30T03:21:17.849Z,4.13
2023-11-30T03:23:46.073Z,4.60
2023-11-30T03:26:16.569Z,3.53
2023-11-30T03:28:45.795Z,6.07
2023-11-30T03:33:40.878Z,6.43
2023-11-30T03:36:09.942Z,4.63
2023-11-30T03:38:37.717Z,4.70
2023-11-30T03:41:05.644Z,5.18
2023-11-30T03:43:33.302Z,6.53
2023-11-30T03:46:02.250Z,6.57
2023-11-30T03:48:29.917Z,7.60
2023-11-30T03:50:57.674Z,8.90
2023-11-30T03:53:25.284Z,4.85
2023-11-30T03:55:52.951Z,5.60
2023-11-30T03:58:20.552Z,4.72
2023-11-30T04:00:48.253Z,7.15
2023-11-30T04:03:17.242Z,5.70
2023-11-30T04:05:45.051Z,9.30
2023-11-30T04:08:12.934Z,6.82
2023-11-30T04:10:40.554Z,5.47
2023-11-30T04:13:08.231Z,4.78
2023-11-30T04:15:35.898Z,7.53
2023-11-30T04:18:04.521Z,4.72
2023-11-30T04:20:33.591Z,4.85
2023-11-30T04:23:01.192Z,6.50
2023-11-30T04:25:28.885Z,6.20
2023-11-30T04:27:58.813Z,5.38
2023-11-30T04:30:26.735Z,6.30
2023-11-30T04:32:54.490Z,4.05
2023-11-30T04:35:25.912Z,6.30
2023-11-30T04:37:54.883Z,6.43
2023-11-30T04:40:23.107Z,6.10
2023-11-30T04:42:50.751Z,6.55
2023-11-30T04:45:19.852Z,5.88
2023-11-30T04:47:48.511Z,2.97
2023-11-30T04:50:16.381Z,4.68
2023-11-30T04:52:45.087Z,6.18
2023-11-30T04:57:42.212Z,8.00
2023-11-30T05:00:11.079Z,5.43
2023-11-30T05:02:39.766Z,8.98
2023-11-30T05:05:08.594Z,5.07
2023-11-30T05:07:36.226Z,5.75
2023-11-30T05:10:03.925Z,6.85
2023-11-30T05:12:33.064Z,6.57
2023-11-30T05:17:28.528Z,9.60
2023-11-30T05:19:57.715Z,8.30
2023-11-30T05:22:25.328Z,7.50
2023-11-30T05:24:52.915Z,15.45
2023-11-30T05:27:20.584Z,10.52
2023-11-30T05:29:49.690Z,11.98
2023-11-30T05:32:17.849Z,13.23
2023-11-30T05:34:45.560Z,16.63
2023-11-30T05:37:13.194Z,10.07
2023-11-30T05:39:40.911Z,14.45
2023-11-30T05:42:11.175Z,11.48
2023-11-30T05:44:38.873Z,13.02
2023-11-30T05:47:08.000Z,16.92
2023-11-30T05:49:35.725Z,11.73
2023-11-30T05:52:03.531Z,14.48
2023-11-30T05:54:31.233Z,14.88
2023-11-30T05:57:00.991Z,11.27
2023-11-30T05:59:29.005Z,13.02
2023-11-30T06:01:56.739Z,10.93
2023-11-30T06:04:25.820Z,8.00
2023-11-30T06:06:53.520Z,10.15
2023-11-30T06:09:21.442Z,10.57
2023-11-30T06:11:49.108Z,9.60
2023-11-30T06:14:16.695Z,9.90
2023-11-30T06:16:44.337Z,8.93
2023-11-30T06:19:12.278Z,8.93
2023-11-30T06:21:41.590Z,9.88
2023-11-30T06:24:09.342Z,7.07
2023-11-30T06:26:37.009Z,9.23
2023-11-30T06:29:04.610Z,9.05
2023-11-30T06:31:32.315Z,8.85
2023-11-30T06:33:59.947Z,9.07
2023-11-30T06:36:27.645Z,11.10
2023-11-30T06:38:56.597Z,8.68
2023-11-30T06:41:24.325Z,9.45
2023-11-30T06:43:51.904Z,11.70
2023-11-30T06:46:23.870Z,9.27
2023-11-30T06:48:51.577Z,9.45
2023-11-30T06:51:19.834Z,9.32
2023-11-30T06:53:47.494Z,8.20
2023-11-30T06:56:16.501Z,9.77
2023-11-30T06:58:44.131Z,11.00
2023-11-30T07:01:12.102Z,10.95
2023-11-30T07:03:42.896Z,10.57
2023-11-30T07:06:11.881Z,10.57
2023-11-30T07:08:39.658Z,11.20
2023-11-30T07:11:09.719Z,12.60
2023-11-30T07:13:38.752Z,14.30
2023-11-30T07:16:07.783Z,13.88
2023-11-30T07:18:35.828Z,14.48
2023-11-30T07:21:05.097Z,13.07
2023-11-30T07:26:00.612Z,10.32
2023-11-30T07:28:28.358Z,8.20
2023-11-30T07:30:57.338Z,13.38
2023-11-30T07:33:24.987Z,11.02
2023-11-30T07:35:52.667Z,12.60
2023-11-30T07:38:20.281Z,19.70
2023-11-30T07:40:47.928Z,15.70
2023-11-30T07:43:15.571Z,15.63
2023-11-30T07:45:43.432Z,16.15
2023-11-30T07:48:12.499Z,15.25
2023-11-30T07:53:10.679Z,12.68
2023-11-30T07:58:06.370Z,14.43
2023-11-30T08:00:34.616Z,12.93
2023-11-30T08:03:02.880Z,12.63
2023-11-30T08:05:32.256Z,8.10
2023-11-30T08:07:59.864Z,16.88
2023-11-30T08:10:27.902Z,17.83
2023-11-30T08:12:55.742Z,13.57
2023-11-30T08:15:23.510Z,13.70
2023-11-30T08:17:51.751Z,15.15
2023-11-30T08:20:19.559Z,11.73
2023-11-30T08:22:48.532Z,17.17
2023-11-30T08:25:17.085Z,20.15
2023-11-30T08:27:48.146Z,18.65
2023-11-30T08:30:18.576Z,15.70
2023-11-30T08:32:46.364Z,15.90
2023-11-30T08:35:13.988Z,14.68
2023-11-30T08:37:41.744Z,12.77
2023-11-30T08:40:12.460Z,15.73
2023-11-30T08:42:40.160Z,11.40
2023-11-30T08:45:09.015Z,12.85
2023-11-30T08:47:37.081Z,12.95
2023-11-30T08:50:06.064Z,13.15
2023-11-30T08:52:33.655Z,13.70
2023-11-30T08:55:01.529Z,12.50
2023-11-30T08:57:30.881Z,13.93
2023-11-30T08:59:58.574Z,13.80
2023-11-30T09:02:26.430Z,14.25
2023-11-30T09:04:54.122Z,13.85
2023-11-30T09:07:21.844Z,11.93
2023-11-30T09:09:51.519Z,11.48
2023-11-30T09:12:19.671Z,17.13
2023-11-30T09:14:49.509Z,18.23
2023-11-30T09:17:17.896Z,16.75
2023-11-30T09:19:45.686Z,15.57
2023-11-30T09:22:13.332Z,18.08
2023-11-30T09:24:41.173Z,17.52
2023-11-30T09:27:09.774Z,16.52
2023-11-30T09:29:37.635Z,16.58
2023-11-30T09:32:07.221Z,13.48
2023-11-30T09:34:34.833Z,17.83
2023-11-30T09:37:02.500Z,12.82
2023-11-30T09:39:30.098Z,12.45
2023-11-30T09:42:00.971Z,12.65
2023-11-30T09:44:29.216Z,12.73
2023-11-30T09:46:57.100Z,9.85
2023-11-30T09:49:27.148Z,11.65
2023-11-30T09:51:54.952Z,15.45
2023-11-30T09:54:24.063Z,13.27
2023-11-30T09:56:51.924Z,12.82
2023-11-30T09:59:19.594Z,14.35
2023-11-30T10:01:47.498Z,12.93
2023-11-30T10:04:15.877Z,13.00
2023-11-30T10:06:48.122Z,11.35
2023-11-30T10:09:16.755Z,12.80
2023-11-30T10:11:44.983Z,13.30
2023-11-30T10:14:12.971Z,10.40
2023-11-30T10:16:42.045Z,14.55
2023-11-30T10:19:09.817Z,17.00
2023-11-30T10:21:38.826Z,16.13
2023-11-30T10:26:38.220Z,14.18
2023-11-30T10:29:07.754Z,13.52
2023-11-30T10:31:37.337Z,13.55
2023-11-30T10:34:10.607Z,13.48
2023-11-30T10:36:40.506Z,19.55
2023-11-30T10:39:17.275Z,22.65
2023-11-30T10:41:51.878Z,15.45
2023-11-30T10:44:27.253Z,15.20
2023-11-30T10:46:56.647Z,11.68
2023-11-30T10:49:25.552Z,12.20
2023-11-30T10:51:57.234Z,14.48
2023-11-30T10:54:34.523Z,22.80
2023-11-30T10:57:03.422Z,11.32
2023-11-30T10:59:32.035Z,10.65
2023-11-30T11:02:00.520Z,10.70
2023-11-30T11:04:29.099Z,6.93
2023-11-30T11:07:03.587Z,10.63
2023-11-30T11:09:43.348Z,11.45
2023-11-30T11:12:21.557Z,8.68
2023-11-30T11:14:50.606Z,8.27
2023-11-30T11:17:22.182Z,10.70
2023-11-30T11:19:49.813Z,8.70
2023-11-30T11:22:19.696Z,9.45
2023-11-30T11:24:50.245Z,9.27
2023-11-30T11:27:31.187Z,10.05
2023-11-30T11:29:59.904Z,9.07
2023-11-30T11:32:27.784Z,8.55
2023-11-30T11:34:55.635Z,10.15
2023-11-30T11:37:23.385Z,9.35
2023-11-30T11:39:53.203Z,9.38
2023-11-30T11:42:21.321Z,7.90
2023-11-30T11:44:49.751Z,7.47
2023-11-30T11:47:17.447Z,6.90
2023-11-30T11:49:45.404Z,6.03
2023-11-30T11:52:20.593Z,6.25
2023-11-30T11:54:48.571Z,6.75
2023-11-30T11:57:18.047Z,6.13
2023-11-30T11:59:45.670Z,6.18
2023-11-30T12:02:20.572Z,5.07
2023-11-30T12:04:48.261Z,6.80
2023-11-30T12:07:17.448Z,6.50
2023-11-30T12:09:55.514Z,4.72
2023-11-30T12:12:32.564Z,5.03
2023-11-30T12:15:00.566Z,5.97
2023-11-30T12:17:28.249Z,6.78
2023-11-30T12:19:55.936Z,6.25
2023-11-30T12:22:22.668Z,5.63
2023-11-30T12:24:50.354Z,5.70
2023-11-30T12:27:18.033Z,6.75
2023-11-30T12:29:47.034Z,5.95
2023-11-30T12:32:14.999Z,5.43
2023-11-30T12:34:42.688Z,7.10
2023-11-30T12:37:10.582Z,5.45
2023-11-30T12:39:38.703Z,5.20
2023-11-30T12:42:06.865Z,5.47
2023-11-30T12:44:35.486Z,5.53
2023-11-30T12:47:04.813Z,7.45
2023-11-30T12:49:34.265Z,5.75
2023-11-30T12:52:02.150Z,4.85
2023-11-30T12:54:29.839Z,4.32
2023-11-30T12:56:57.465Z,5.50
2023-11-30T12:59:25.216Z,5.53
2023-11-30T13:01:55.472Z,3.83
2023-11-30T13:04:25.656Z,4.55
2023-11-30T13:06:53.410Z,4.25
2023-11-30T13:09:21.172Z,5.55
2023-11-30T13:11:49.264Z,4.30
2023-11-30T13:14:17.358Z,5.35
2023-11-30T13:16:46.034Z,6.13
2023-11-30T13:19:13.734Z,7.82
2023-11-30T13:21:42.747Z,5.07
2023-11-30T13:24:10.415Z,5.00
2023-11-30T13:26:38.054Z,5.05
2023-11-30T13:29:05.664Z,4.95
2023-11-30T13:31:33.416Z,4.13
2023-11-30T13:34:01.060Z,5.07
2023-11-30T13:36:28.734Z,9.45
2023-11-30T13:38:57.792Z,6.88
2023-11-30T13:41:25.403Z,6.13
2023-11-30T13:43:53.078Z,5.32
2023-11-30T13:46:22.332Z,4.53
2023-11-30T13:51:17.749Z,6.65
2023-11-30T13:53:45.357Z,8.15
2023-11-30T13:56:15.261Z,7.63
2023-11-30T13:58:42.877Z,7.38
2023-11-30T14:01:11.190Z,6.03
2023-11-30T14:03:39.066Z,5.68
2023-11-30T14:06:07.341Z,7.13
2023-11-30T14:08:35.952Z,5.03
2023-11-30T14:11:06.566Z,4.47
2023-11-30T14:13:35.556Z,5.18
2023-11-30T14:16:04.141Z,5.43
2023-11-30T14:18:31.835Z,8.02
2023-11-30T14:21:00.579Z,4.40
2023-11-30T14:23:29.066Z,4.70
2023-11-30T14:25:57.466Z,5.20
2023-11-30T14:28:27.298Z,4.55
2023-11-30T14:30:56.404Z,5.13
2023-11-30T14:33:24.155Z,4.50
2023-11-30T14:35:51.790Z,4.70
2023-11-30T14:38:19.432Z,6.00
2023-11-30T14:40:47.328Z,4.05
2023-11-30T14:43:15.355Z,6.63
2023-11-30T14:45:43.193Z,4.90
2023-11-30T14:48:12.550Z,4.78
2023-11-30T14:50:40.245Z,7.93
2023-11-30T14:53:07.984Z,6.45
2023-11-30T14:55:35.601Z,5.75
2023-11-30T14:58:04.615Z,8.80
2023-11-30T15:00:32.688Z,6.20
2023-11-30T15:03:02.992Z,5.35
2023-11-30T15:05:31.980Z,5.88
2023-11-30T15:08:01.053Z,4.80
2023-11-30T15:10:29.043Z,7.68
2023-11-30T15:12:56.668Z,7.65
2023-11-30T15:15:24.498Z,7.20
2023-11-30T15:17:53.486Z,6.97
2023-11-30T15:20:23.323Z,7.68
2023-11-30T15:22:52.419Z,7.15
2023-11-30T15:25:20.905Z,6.47
2023-11-30T15:27:50.211Z,5.50
2023-11-30T15:30:18.397Z,6.63
2023-11-30T15:32:46.355Z,5.70
2023-11-30T15:35:14.090Z,8.15
2023-11-30T15:37:47.208Z,6.10
2023-11-30T15:40:17.776Z,8.23
2023-11-30T15:42:46.118Z,8.77
2023-11-30T15:45:15.300Z,9.70
2023-11-30T15:47:43.225Z,13.30
2023-11-30T15:50:12.224Z,10.10
2023-11-30T15:52:40.684Z,7.55
2023-11-30T15:55:11.617Z,6.28
2023-11-30T15:57:40.706Z,6.65
2023-11-30T16:00:10.009Z,8.65
2023-11-30T16:02:41.077Z,8.45
2023-11-30T16:05:09.365Z,7.30
2023-11-30T16:07:37.023Z,8.18
2023-11-30T16:10:06.021Z,9.25
2023-11-30T16:12:33.735Z,6.32
2023-11-30T16:15:03.835Z,9.15
2023-11-30T16:17:31.493Z,6.97
2023-11-30T16:19:59.426Z,6.97
2023-11-30T16:22:27.204Z,7.82
2023-11-30T16:24:54.990Z,8.48
2023-11-30T16:27:22.879Z,6.22
2023-11-30T16:29:50.748Z,7.10
2023-11-30T16:32:19.799Z,6.32
2023-11-30T16:34:47.431Z,8.85
2023-11-30T16:37:15.052Z,9.85
2023-11-30T16:39:42.939Z,15.05
2023-11-30T16:42:10.605Z,18.90
2023-11-30T16:44:38.217Z,19.73
2023-11-30T16:47:06.251Z,12.77
2023-11-30T16:49:34.359Z,18.75
2023-11-30T16:52:02.018Z,18.48
2023-11-30T16:54:29.799Z,19.08
2023-11-30T16:56:57.441Z,24.73
2023-11-30T16:59:25.286Z,27.60
2023-11-30T17:01:52.932Z,22.88
2023-11-30T17:04:20.899Z,22.08
2023-11-30T17:06:51.496Z,12.55
2023-11-30T17:09:19.381Z,11.68
2023-11-30T17:11:47.049Z,13.15
2023-11-30T17:14:14.764Z,23.30
2023-11-30T17:16:42.370Z,21.77
2023-11-30T17:19:09.976Z,23.80
2023-11-30T17:21:37.636Z,17.13
2023-11-30T17:24:09.648Z,21.60
2023-11-30T17:26:37.254Z,23.05
2023-11-30T17:29:04.880Z,23.60
2023-11-30T17:31:32.461Z,20.17
2023-11-30T17:34:00.412Z,16.33
2023-11-30T17:36:28.160Z,19.45
2023-11-30T17:38:55.775Z,20.10
2023-11-30T17:41:24.750Z,16.38
2023-11-30T17:43:52.499Z,17.17
2023-11-30T17:46:20.129Z,16.27
2023-11-30T17:48:48.203Z,13.50
2023-11-30T17:51:18.980Z,16.67
2023-11-30T17:53:47.572Z,17.73
2023-11-30T17:56:15.305Z,15.63
2023-11-30T17:58:44.404Z,18.55
2023-11-30T18:01:12.100Z,25.38
2023-11-30T18:03:39.833Z,23.75
2023-11-30T18:06:10.416Z,19.73
2023-11-30T18:08:38.049Z,16.40
2023-11-30T18:11:05.945Z,16.05
2023-11-30T18:13:33.554Z,13.77
2023-11-30T18:16:04.515Z,13.27
2023-11-30T18:18:32.456Z,14.20
2023-11-30T18:21:00.226Z,14.70
2023-11-30T18:23:27.826Z,17.52
2023-11-30T18:25:55.483Z,12.20
2023-11-30T18:28:23.301Z,12.68
2023-11-30T18:30:52.048Z,14.73
2023-11-30T18:33:22.288Z,12.88
2023-11-30T18:35:50.574Z,15.95
2023-11-30T18:38:18.309Z,17.63
2023-11-30T18:40:46.222Z,13.77
2023-11-30T18:43:17.043Z,17.17
2023-11-30T18:45:44.798Z,14.50
2023-11-30T18:48:12.449Z,17.67
2023-11-30T18:50:41.427Z,15.48
2023-11-30T18:53:09.288Z,15.45
2023-11-30T18:55:37.088Z,15.57
2023-11-30T18:58:04.841Z,13.40
2023-11-30T19:00:32.552Z,17.48
2023-11-30T19:03:00.796Z,17.50
2023-11-30T19:05:28.545Z,19.37
2023-11-30T19:07:57.543Z,17.88
2023-11-30T19:10:25.137Z,18.52
2023-11-30T19:12:53.704Z,19.48
2023-11-30T19:15:21.483Z,22.98
2023-11-30T19:17:49.866Z,29.80
2023-11-30T19:20:17.834Z,23.13
2023-11-30T19:22:47.027Z,22.13
2023-11-30T19:27:43.612Z,16.60
2023-11-30T19:30:12.856Z,16.33
2023-11-30T19:32:40.480Z,17.38
2023-11-30T19:35:09.307Z,18.98
2023-11-30T19:37:36.989Z,13.98
2023-11-30T19:40:05.303Z,17.80
2023-11-30T19:42:34.348Z,13.90
2023-11-30T19:45:01.972Z,13.15
2023-11-30T19:47:29.635Z,13.75
2023-11-30T19:49:57.246Z,13.55
2023-11-30T19:52:24.867Z,12.75
2023-11-30T19:54:52.648Z,14.30
2023-11-30T19:57:20.628Z,11.32
2023-11-30T19:59:49.605Z,18.25
2023-11-30T20:02:17.264Z,17.83
2023-11-30T20:04:44.972Z,18.35
2023-11-30T20:07:12.826Z,16.25
2023-11-30T20:09:40.570Z,16.17
2023-11-30T20:12:09.854Z,20.92
2023-11-30T20:17:06.366Z,19.50
2023-11-30T20:19:36.258Z,22.30
2023-11-30T20:22:04.436Z,23.70
2023-11-30T20:24:35.367Z,38.47
2023-11-30T20:27:06.680Z,31.17
2023-11-30T20:29:34.582Z,30.58
2023-11-30T20:32:02.775Z,26.02
2023-11-30T20:34:31.784Z,23.02
2023-11-30T20:36:59.660Z,23.35
2023-11-30T20:39:27.602Z,24.58
2023-11-30T20:41:55.877Z,26.08
2023-11-30T20:44:23.464Z,24.38
2023-11-30T20:46:51.408Z,20.45
2023-11-30T20:49:19.037Z,23.20
2023-11-30T20:51:48.414Z,23.50
2023-11-30T20:54:16.169Z,23.63
2023-11-30T20:56:48.092Z,19.88
2023-11-30T20:59:16.199Z,18.33
2023-11-30T21:01:44.575Z,22.85
2023-11-30T21:04:12.342Z,24.67
2023-11-30T21:06:40.042Z,22.33
2023-11-30T21:09:09.112Z,22.33
2023-11-30T21:11:39.543Z,25.73
2023-11-30T21:14:08.527Z,21.98
2023-11-30T21:16:36.166Z,22.77
2023-11-30T21:19:04.491Z,23.80
2023-11-30T21:21:32.208Z,21.83
2023-11-30T21:23:59.817Z,23.20
2023-11-30T21:26:28.766Z,21.33
2023-11-30T21:28:56.377Z,17.38
2023-11-30T21:31:24.059Z,19.70
2023-11-30T21:33:52.201Z,21.52
2023-11-30T21:36:20.180Z,20.40
2023-11-30T21:38:47.783Z,23.92
2023-11-30T21:41:16.243Z,23.10
2023-11-30T21:43:45.259Z,14.18
2023-11-30T21:46:13.099Z,19.67
2023-11-30T21:48:40.883Z,20.10
2023-11-30T21:51:09.063Z,19.40
2023-11-30T21:53:36.719Z,22.33
2023-11-30T21:56:04.595Z,19.10
2023-11-30T21:58:34.072Z,23.00
2023-11-30T22:01:05.460Z,22.35
2023-11-30T22:03:33.431Z,19.83
2023-11-30T22:06:01.274Z,19.17
2023-11-30T22:08:30.566Z,21.73
2023-11-30T22:13:25.892Z,28.85
2023-11-30T22:15:59.810Z,30.02
2023-11-30T22:18:33.172Z,21.25
2023-11-30T22:21:00.989Z,26.60
2023-11-30T22:23:28.959Z,23.63
2023-11-30T22:26:02.584Z,27.55
2023-11-30T22:28:32.309Z,25.95
2023-11-30T22:31:00.518Z,24.17
2023-11-30T22:33:28.267Z,22.55
2023-11-30T22:35:57.552Z,26.65
2023-11-30T22:40:55.467Z,22.52
2023-11-30T22:43:23.193Z,23.77
2023-11-30T22:45:50.913Z,23.67
2023-11-30T22:48:18.600Z,24.40
2023-11-30T22:50:46.349Z,21.45
2023-11-30T22:53:14.473Z,22.27
2023-11-30T22:55:42.334Z,21.58
2023-11-30T22:58:10.098Z,16.05
2023-11-30T23:00:38.263Z,18.63
2023-11-30T23:03:06.185Z,9.32
2023-11-30T23:05:34.044Z,13.38
2023-11-30T23:08:01.664Z,14.43
2023-11-30T23:10:30.616Z,16.30
2023-11-30T23:13:00.944Z,15.93
2023-11-30T23:15:28.850Z,15.15
2023-11-30T23:17:57.147Z,13.23
2023-11-30T23:20:24.893Z,13.85
2023-11-30T23:22:52.508Z,13.70
2023-11-30T23:25:20.351Z,14.40
2023-11-30T23:27:49.691Z,17.65
2023-11-30T23:30:17.454Z,15.82
2023-11-30T23:32:47.784Z,14.20
2023-11-30T23:35:16.369Z,16.85
2023-11-30T23:37:44.028Z,15.90
2023-11-30T23:40:13.037Z,14.20
2023-11-30T23:42:40.756Z,15.00
2023-11-30T23:45:11.648Z,16.58
2023-11-30T23:47:39.322Z,13.52
2023-11-30T23:50:07.927Z,15.98
2023-11-30T23:52:35.586Z,16.42
2023-11-30T23:55:03.556Z,15.40
2023-11-30T23:57:32.389Z,13.05
